Time;durP1;ratioP1;P1;durP2;ratioP2;P2;SDS_P1;SDS_P2;PMS_P1;PMS_P2;Temp;Humidity;BMP_temperature;BMP_pressure;BME280_temperature;BME280_humidity;BME280_pressure;Samples;Min_cycle;Max_cycle;Signal;HPM_P1;HPM_P2
2021/12/26 00:01:21;;;;;;;7.65;5.90;;;8.40;93.80;;;;;;5017857;28;20196;-72
2021/12/26 00:03:50;;;;;;;7.28;6.00;;;8.30;93.70;;;;;;5011840;28;20258;-72
2021/12/26 00:06:22;;;;;;;6.80;6.05;;;8.30;93.70;;;;;;5028352;28;20196;-72
2021/12/26 00:08:50;;;;;;;8.60;6.20;;;8.30;93.90;;;;;;5025109;28;20620;-72
2021/12/26 00:11:18;;;;;;;6.35;5.43;;;8.30;94.00;;;;;;5014263;28;20608;-72
2021/12/26 00:13:45;;;;;;;6.15;4.95;;;8.20;94.00;;;;;;5021844;28;20191;-71
2021/12/26 00:16:17;;;;;;;11.27;6.60;;;8.20;94.00;;;;;;5051618;28;20198;-72
2021/12/26 00:18:46;;;;;;;8.23;7.07;;;8.20;94.10;;;;;;5049673;28;20194;-72
2021/12/26 00:21:18;;;;;;;13.68;8.10;;;8.30;94.50;;;;;;5051295;28;20187;-72
2021/12/26 00:23:45;;;;;;;10.93;7.63;;;8.30;94.30;;;;;;5045770;28;20191;-72
2021/12/26 00:26:13;;;;;;;10.73;7.63;;;8.30;94.30;;;;;;5031556;28;20629;-71
2021/12/26 00:28:40;;;;;;;9.02;6.80;;;8.30;94.40;;;;;;5032066;28;20215;-74
2021/12/26 00:31:08;;;;;;;9.82;7.30;;;8.30;94.40;;;;;;5031469;28;20285;-72
2021/12/26 00:33:35;;;;;;;8.13;7.00;;;8.30;94.40;;;;;;5033889;28;20187;-72
2021/12/26 00:36:03;;;;;;;8.68;7.00;;;8.30;94.40;;;;;;5051312;28;20601;-72
2021/12/26 00:38:32;;;;;;;9.73;8.70;;;8.30;94.50;;;;;;5050526;28;20207;-71
2021/12/26 00:40:59;;;;;;;12.48;9.95;;;8.40;94.60;;;;;;5032024;28;20194;-71
2021/12/26 00:43:27;;;;;;;10.45;8.13;;;8.30;94.30;;;;;;5031155;28;20195;-73
2021/12/26 00:45:54;;;;;;;7.45;6.65;;;8.30;94.30;;;;;;5051179;28;20209;-73
2021/12/26 00:48:21;;;;;;;8.82;6.22;;;8.30;94.20;;;;;;5051080;28;20226;-71
2021/12/26 00:50:49;;;;;;;7.13;5.72;;;8.30;93.90;;;;;;5030938;28;20219;-72
2021/12/26 00:53:16;;;;;;;7.03;5.60;;;8.20;93.50;;;;;;5031084;28;20242;-72
2021/12/26 00:55:50;;;;;;;7.60;5.72;;;8.10;93.40;;;;;;5031388;28;20192;-73
2021/12/26 00:58:17;;;;;;;6.25;4.32;;;8.20;93.50;;;;;;5032454;28;20242;-72
2021/12/26 01:00:47;;;;;;;5.70;4.60;;;8.20;93.30;;;;;;5032755;28;20241;-73
2021/12/26 01:03:15;;;;;;;8.55;5.82;;;8.10;93.30;;;;;;5030819;28;20204;-72
2021/12/26 01:05:45;;;;;;;6.18;5.10;;;8.10;93.20;;;;;;5051039;28;20532;-72
2021/12/26 01:08:15;;;;;;;6.82;4.82;;;8.10;93.20;;;;;;5039279;28;20219;-72
2021/12/26 01:10:45;;;;;;;6.47;4.85;;;8.00;93.20;;;;;;5030987;28;20218;-72
2021/12/26 01:13:24;;;;;;;7.55;4.72;;;8.00;93.10;;;;;;5036862;28;20217;-73
2021/12/26 01:15:54;;;;;;;5.90;4.35;;;8.00;93.10;;;;;;5034728;28;20221;-72
2021/12/26 01:18:21;;;;;;;7.22;5.15;;;8.00;92.90;;;;;;5030622;28;20192;-73
2021/12/26 01:20:53;;;;;;;7.18;5.00;;;8.00;93.00;;;;;;5040550;28;20198;-72
2021/12/26 01:23:22;;;;;;;8.30;5.85;;;7.90;93.00;;;;;;5051046;28;20282;-79
2021/12/26 01:25:50;;;;;;;6.82;5.00;;;7.90;93.20;;;;;;5040843;28;20607;-73
2021/12/26 01:28:21;;;;;;;7.65;5.07;;;7.90;93.20;;;;;;5030756;28;20219;-72
2021/12/26 01:30:49;;;;;;;8.05;5.40;;;7.90;93.10;;;;;;5039359;28;20191;-72
2021/12/26 01:33:18;;;;;;;7.30;5.20;;;7.90;93.20;;;;;;5050492;28;20601;-72
2021/12/26 01:35:46;;;;;;;8.25;5.07;;;7.90;93.20;;;;;;5042206;28;20225;-72
2021/12/26 01:38:14;;;;;;;9.50;6.78;;;7.90;93.20;;;;;;5030512;28;20195;-72
2021/12/26 01:40:44;;;;;;;8.38;5.55;;;7.90;93.20;;;;;;5036945;28;20195;-73
2021/12/26 01:43:11;;;;;;;8.98;5.20;;;7.80;93.20;;;;;;5050532;28;20201;-71
2021/12/26 01:45:40;;;;;;;7.63;5.40;;;7.80;93.20;;;;;;5044212;28;20187;-74
2021/12/26 01:48:07;;;;;;;7.03;5.78;;;7.80;93.30;;;;;;5030191;28;20273;-80
2021/12/26 01:50:36;;;;;;;10.13;7.32;;;7.80;93.30;;;;;;5044671;28;20936;-72
2021/12/26 01:53:05;;;;;;;10.85;6.00;;;7.80;93.40;;;;;;5049733;28;20203;-72
2021/12/26 01:55:40;;;;;;;11.75;6.80;;;7.80;93.50;;;;;;5048432;28;20195;-72
2021/12/26 01:58:11;;;;;;;10.35;6.53;;;7.80;93.40;;;;;;5051851;28;20597;-71
2021/12/26 02:00:41;;;;;;;10.05;5.97;;;7.80;93.50;;;;;;5050930;28;20183;-71
2021/12/26 02:03:09;;;;;;;10.07;6.30;;;7.80;93.60;;;;;;5051846;28;20562;-73
2021/12/26 02:05:36;;;;;;;9.20;6.82;;;7.80;93.50;;;;;;5049080;28;20187;-72
2021/12/26 02:08:04;;;;;;;10.45;6.32;;;7.70;93.30;;;;;;5051271;28;20693;-73
2021/12/26 02:10:31;;;;;;;9.00;6.03;;;7.80;93.40;;;;;;5034213;28;20547;-72
2021/12/26 02:12:58;;;;;;;8.57;6.97;;;7.80;93.40;;;;;;5031322;28;20218;-72
2021/12/26 02:15:25;;;;;;;10.48;6.40;;;7.80;93.50;;;;;;5047945;28;20187;-73
2021/12/26 02:17:54;;;;;;;12.23;7.57;;;7.80;93.60;;;;;;5054597;28;20186;-72
2021/12/26 02:20:35;;;;;;;11.05;7.03;;;7.80;93.60;;;;;;5041376;28;20263;-71
2021/12/26 02:23:09;;;;;;;9.45;7.13;;;7.80;93.50;;;;;;5035173;28;20282;-72
2021/12/26 02:28:19;;;;;;;10.13;7.25;;;7.80;93.50;;;;;;5054213;28;20222;-71
2021/12/26 02:30:47;;;;;;;12.00;8.18;;;7.80;93.30;;;;;;5035563;28;20601;-72
2021/12/26 02:33:16;;;;;;;11.63;7.93;;;7.80;93.30;;;;;;5034792;28;20249;-72
2021/12/26 02:35:45;;;;;;;13.25;8.05;;;7.80;93.10;;;;;;5035797;28;20643;-72
2021/12/26 02:38:13;;;;;;;13.77;7.63;;;7.80;93.10;;;;;;5034744;28;20191;-72
2021/12/26 02:40:41;;;;;;;15.50;8.63;;;7.80;93.10;;;;;;5051816;28;20610;-72
2021/12/26 02:43:08;;;;;;;11.13;7.60;;;7.70;93.40;;;;;;5054388;28;20195;-72
2021/12/26 02:45:36;;;;;;;13.75;7.88;;;7.70;93.10;;;;;;5038045;28;20223;-72
2021/12/26 02:48:07;;;;;;;13.95;8.95;;;7.70;92.90;;;;;;5043108;28;20191;-71
2021/12/26 02:50:34;;;;;;;11.82;7.97;;;7.70;92.80;;;;;;5054421;28;20191;-72
2021/12/26 02:53:04;;;;;;;11.80;7.80;;;7.60;93.00;;;;;;5046178;28;20219;-71
2021/12/26 02:55:31;;;;;;;14.27;8.40;;;7.50;93.00;;;;;;5034657;28;20253;-72
2021/12/26 02:58:02;;;;;;;12.75;7.90;;;7.50;93.20;;;;;;5041338;28;20241;-72
2021/12/26 03:00:36;;;;;;;11.60;7.53;;;7.50;93.30;;;;;;5052671;28;20477;-73
2021/12/26 03:03:05;;;;;;;11.68;7.30;;;7.50;93.30;;;;;;5054556;28;20195;-72
2021/12/26 03:05:35;;;;;;;14.02;8.55;;;7.40;93.30;;;;;;5043745;28;20188;-72
2021/12/26 03:08:05;;;;;;;12.25;7.88;;;7.40;93.40;;;;;;5034249;28;20196;-72
2021/12/26 03:10:33;;;;;;;11.40;7.45;;;7.40;93.30;;;;;;5043307;28;20187;-72
2021/12/26 03:13:06;;;;;;;15.25;8.70;;;7.40;93.50;;;;;;5054007;28;20282;-72
2021/12/26 03:15:34;;;;;;;11.27;7.43;;;7.40;93.60;;;;;;5042085;28;20198;-72
2021/12/26 03:18:02;;;;;;;13.75;8.27;;;7.40;93.60;;;;;;5034228;28;20249;-71
2021/12/26 03:20:32;;;;;;;15.02;8.32;;;7.40;93.40;;;;;;5044527;28;20191;-72
2021/12/26 03:23:00;;;;;;;11.70;8.20;;;7.40;93.40;;;;;;5054047;28;20195;-72
2021/12/26 03:25:32;;;;;;;12.00;8.32;;;7.40;93.50;;;;;;5043176;28;20254;-71
2021/12/26 03:27:59;;;;;;;11.73;8.43;;;7.40;93.60;;;;;;5033975;28;20234;-72
2021/12/26 03:30:28;;;;;;;14.15;8.60;;;7.30;93.50;;;;;;5042829;28;20218;-72
2021/12/26 03:32:58;;;;;;;16.02;10.23;;;7.30;93.50;;;;;;5053897;28;20191;-71
2021/12/26 03:35:28;;;;;;;13.65;8.80;;;7.30;93.60;;;;;;5044934;28;20199;-71
2021/12/26 03:37:57;;;;;;;13.15;7.85;;;7.30;93.60;;;;;;5033761;28;20203;-72
2021/12/26 03:40:24;;;;;;;11.55;8.30;;;7.30;93.60;;;;;;5041148;28;20248;-71
2021/12/26 03:42:53;;;;;;;13.05;8.48;;;7.30;93.60;;;;;;5047539;28;20190;-71
2021/12/26 03:45:22;;;;;;;14.73;9.13;;;7.30;93.60;;;;;;5033593;28;20669;-72
2021/12/26 03:47:50;;;;;;;16.48;9.05;;;7.30;93.70;;;;;;5038272;28;20613;-72
2021/12/26 03:50:19;;;;;;;11.65;7.45;;;7.30;93.70;;;;;;5053484;28;20244;-72
2021/12/26 03:52:46;;;;;;;13.18;9.43;;;7.30;93.90;;;;;;5048824;28;20225;-71
2021/12/26 03:55:14;;;;;;;18.63;9.35;;;7.30;93.90;;;;;;5033460;28;20188;-72
2021/12/26 03:57:41;;;;;;;12.50;7.97;;;7.40;94.00;;;;;;5035678;28;20195;-72
2021/12/26 04:00:13;;;;;;;12.93;8.25;;;7.40;93.90;;;;;;5053307;28;20191;-72
2021/12/26 04:02:41;;;;;;;18.75;9.85;;;7.40;93.90;;;;;;5050998;28;20190;-72
2021/12/26 04:05:08;;;;;;;14.20;8.63;;;7.40;93.80;;;;;;5033478;28;20195;-72
2021/12/26 04:07:36;;;;;;;11.38;8.30;;;7.40;93.70;;;;;;5033892;28;20191;-72
2021/12/26 04:10:04;;;;;;;15.55;9.07;;;7.30;93.60;;;;;;5053128;28;20305;-71
2021/12/26 04:12:35;;;;;;;16.67;9.68;;;7.20;93.80;;;;;;5033369;28;20191;-72
2021/12/26 04:15:03;;;;;;;14.07;9.05;;;7.20;93.80;;;;;;5033461;28;20297;-72
2021/12/26 04:17:32;;;;;;;14.55;9.35;;;7.20;94.00;;;;;;5051506;28;20261;-72
2021/12/26 04:19:59;;;;;;;13.48;8.00;;;7.20;94.00;;;;;;5053168;28;20245;-72
2021/12/26 04:22:27;;;;;;;16.55;9.57;;;7.20;94.20;;;;;;5035174;28;20200;-71
2021/12/26 04:24:54;;;;;;;16.35;9.50;;;7.20;94.00;;;;;;5033132;28;20223;-71
2021/12/26 04:27:24;;;;;;;16.48;9.18;;;7.30;94.20;;;;;;5048978;28;20264;-72
2021/12/26 04:29:51;;;;;;;15.05;8.75;;;7.30;94.00;;;;;;5053041;28;20226;-72
2021/12/26 04:32:18;;;;;;;12.95;8.13;;;7.30;93.90;;;;;;5037061;28;20188;-72
2021/12/26 04:34:47;;;;;;;13.93;8.48;;;7.30;93.90;;;;;;5032997;28;20223;-72
2021/12/26 04:37:14;;;;;;;15.23;8.63;;;7.30;93.90;;;;;;5046341;28;20546;-72
2021/12/26 04:39:41;;;;;;;14.18;8.43;;;7.30;93.70;;;;;;5039946;28;20183;-72
2021/12/26 04:42:10;;;;;;;14.20;9.30;;;7.30;93.60;;;;;;5032807;28;20245;-72
2021/12/26 04:44:37;;;;;;;14.70;8.90;;;7.30;93.60;;;;;;5043292;28;20650;-72
2021/12/26 04:47:05;;;;;;;14.55;8.35;;;7.30;93.70;;;;;;5052739;28;20286;-72
2021/12/26 04:49:32;;;;;;;16.60;10.63;;;7.30;93.70;;;;;;5042383;28;20226;-72
2021/12/26 04:52:01;;;;;;;17.80;9.88;;;7.30;93.70;;;;;;5032733;28;20223;-72
2021/12/26 04:54:28;;;;;;;15.00;9.93;;;7.30;93.60;;;;;;5040756;28;20641;-72
2021/12/26 04:56:57;;;;;;;18.30;8.63;;;7.30;93.40;;;;;;5052707;28;20201;-71
2021/12/26 04:59:24;;;;;;;16.08;8.88;;;7.30;93.40;;;;;;5044662;28;20187;-72
2021/12/26 05:01:51;;;;;;;14.52;8.85;;;7.30;93.50;;;;;;5033551;28;20222;-72
2021/12/26 05:04:18;;;;;;;16.48;9.77;;;7.30;93.50;;;;;;5038350;28;20187;-72
2021/12/26 05:06:45;;;;;;;14.48;8.68;;;7.30;93.40;;;;;;5050702;28;20191;-72
2021/12/26 05:09:14;;;;;;;16.25;8.82;;;7.40;93.40;;;;;;5047024;28;20247;-72
2021/12/26 05:11:42;;;;;;;12.27;9.75;;;7.30;93.30;;;;;;5032274;28;20198;-72
2021/12/26 05:14:09;;;;;;;16.33;9.32;;;7.40;93.40;;;;;;5033251;28;20205;-72
2021/12/26 05:16:36;;;;;;;18.77;9.80;;;7.40;93.30;;;;;;5042966;28;20275;-72
2021/12/26 05:19:03;;;;;;;17.25;10.13;;;7.30;93.30;;;;;;5032282;28;20191;-71
2021/12/26 05:21:31;;;;;;;15.15;9.75;;;7.40;93.30;;;;;;5033633;28;20202;-72
2021/12/26 05:23:58;;;;;;;14.75;9.35;;;7.40;93.20;;;;;;5052273;28;20274;-73
2021/12/26 05:26:26;;;;;;;14.05;8.45;;;7.30;93.10;;;;;;5051479;28;20197;-73
2021/12/26 05:28:54;;;;;;;14.60;9.90;;;7.30;93.10;;;;;;5032291;28;20188;-72
2021/12/26 05:31:21;;;;;;;16.08;9.35;;;7.30;93.10;;;;;;5032234;28;20196;-72
2021/12/26 05:33:48;;;;;;;16.67;9.82;;;7.40;93.10;;;;;;5051241;28;20202;-72
2021/12/26 05:36:15;;;;;;;14.13;8.40;;;7.40;92.90;;;;;;5052012;28;20201;-72
2021/12/26 05:38:43;;;;;;;16.88;10.00;;;7.30;92.90;;;;;;5033659;28;20712;-72
2021/12/26 05:41:10;;;;;;;15.25;7.90;;;7.40;92.90;;;;;;5032173;28;20191;-72
2021/12/26 05:43:38;;;;;;;14.55;8.85;;;7.40;92.90;;;;;;5048411;28;20184;-71
2021/12/26 05:46:05;;;;;;;14.88;7.90;;;7.30;92.90;;;;;;5048302;28;20180;-72
2021/12/26 05:48:33;;;;;;;10.75;6.95;;;7.30;92.90;;;;;;5032219;28;20242;-71
2021/12/26 05:51:00;;;;;;;13.63;8.90;;;7.30;92.90;;;;;;5036942;28;20704;-71
2021/12/26 05:53:27;;;;;;;16.33;8.43;;;7.30;93.00;;;;;;5055801;28;20214;-72
2021/12/26 05:55:54;;;;;;;14.63;7.85;;;7.30;93.10;;;;;;5054531;28;20221;-73
2021/12/26 05:58:24;;;;;;;14.73;8.70;;;7.20;92.90;;;;;;5036061;28;20195;-72
2021/12/26 06:00:52;;;;;;;13.40;7.75;;;7.20;92.90;;;;;;5036867;28;20194;-71
2021/12/26 06:03:19;;;;;;;11.18;6.95;;;7.20;93.00;;;;;;5035700;28;20188;-71
2021/12/26 06:05:47;;;;;;;13.40;7.57;;;7.20;93.30;;;;;;5045363;28;20190;-72
2021/12/26 06:08:19;;;;;;;14.48;8.65;;;7.20;93.40;;;;;;5055400;28;20195;-72
2021/12/26 06:10:47;;;;;;;14.10;8.30;;;7.20;93.30;;;;;;5045572;28;20215;-72
2021/12/26 06:13:20;;;;;;;12.45;8.88;;;7.20;93.50;;;;;;5035537;28;20672;-71
2021/12/26 06:15:47;;;;;;;15.85;8.93;;;7.20;93.30;;;;;;5044023;28;20900;-72
2021/12/26 06:18:16;;;;;;;11.40;7.28;;;7.20;93.30;;;;;;5055321;28;20194;-72
2021/12/26 06:20:48;;;;;;;12.02;7.88;;;7.20;93.50;;;;;;5047165;28;20200;-71
2021/12/26 06:23:15;;;;;;;14.68;8.73;;;7.20;93.70;;;;;;5035326;28;20651;-72
2021/12/26 06:25:42;;;;;;;15.00;8.45;;;7.10;93.60;;;;;;5042038;28;20191;-72
2021/12/26 06:28:10;;;;;;;14.45;10.02;;;7.20;93.50;;;;;;5049568;28;20192;-72
2021/12/26 06:30:38;;;;;;;12.85;8.63;;;7.20;93.50;;;;;;5035187;28;20223;-72
2021/12/26 06:33:06;;;;;;;17.38;7.72;;;7.10;93.50;;;;;;5039050;28;20253;-71
2021/12/26 06:35:34;;;;;;;14.23;7.88;;;7.20;93.50;;;;;;5052522;28;20191;-71
2021/12/26 06:38:02;;;;;;;10.65;7.20;;;7.20;93.70;;;;;;5035142;28;20245;-72
2021/12/26 06:40:29;;;;;;;14.65;7.63;;;7.20;93.70;;;;;;5035616;28;20206;-72
2021/12/26 06:42:56;;;;;;;11.23;8.60;;;7.20;93.70;;;;;;5054881;28;20195;-71
2021/12/26 06:45:23;;;;;;;12.45;7.30;;;7.20;93.90;;;;;;5054732;28;20194;-72
2021/12/26 06:47:52;;;;;;;14.93;6.32;;;7.10;93.60;;;;;;5054673;28;20213;-72
2021/12/26 06:50:20;;;;;;;11.98;7.18;;;7.20;93.70;;;;;;5054876;28;20222;-72
2021/12/26 06:52:49;;;;;;;16.00;7.78;;;7.10;93.50;;;;;;5045936;28;20191;-72
2021/12/26 06:55:17;;;;;;;14.15;7.40;;;7.10;93.70;;;;;;5054654;28;20195;-72
2021/12/26 06:57:44;;;;;;;11.63;7.32;;;7.10;93.80;;;;;;5036259;28;20245;-72
2021/12/26 07:00:15;;;;;;;11.52;6.97;;;7.10;93.90;;;;;;5034634;28;20230;-71
2021/12/26 07:02:43;;;;;;;11.50;8.98;;;7.20;93.90;;;;;;5051297;28;20222;-71
2021/12/26 07:05:12;;;;;;;9.48;6.38;;;7.20;94.00;;;;;;5054632;28;20695;-72
2021/12/26 07:07:40;;;;;;;11.30;6.47;;;7.20;94.00;;;;;;5037899;28;20289;-72
2021/12/26 07:10:10;;;;;;;9.88;6.55;;;7.20;94.10;;;;;;5034240;28;20267;-72
2021/12/26 07:12:38;;;;;;;12.38;6.88;;;7.20;94.10;;;;;;5049588;28;20657;-71
2021/12/26 07:15:06;;;;;;;9.43;6.18;;;7.20;94.00;;;;;;5053552;28;20198;-73
2021/12/26 07:17:33;;;;;;;10.55;6.53;;;7.20;94.00;;;;;;5032138;28;20226;-72
2021/12/26 07:20:01;;;;;;;9.23;5.85;;;7.20;94.00;;;;;;5027657;28;20196;-73
2021/12/26 07:22:28;;;;;;;9.75;6.32;;;7.20;93.90;;;;;;5020820;28;20643;-72
2021/12/26 07:24:55;;;;;;;11.05;6.40;;;7.20;93.80;;;;;;5020690;28;20219;-72
2021/12/26 07:27:24;;;;;;;8.93;6.43;;;7.20;93.80;;;;;;5014030;28;20188;-71
2021/12/26 07:29:52;;;;;;;12.75;7.40;;;7.20;93.90;;;;;;5021961;28;20314;-71
2021/12/26 07:32:19;;;;;;;11.60;6.90;;;7.20;94.00;;;;;;5013766;28;20196;-72
2021/12/26 07:34:46;;;;;;;9.80;6.50;;;7.30;94.00;;;;;;5014755;28;20227;-71
2021/12/26 07:37:13;;;;;;;12.77;7.28;;;7.30;93.90;;;;;;5013447;28;20192;-73
2021/12/26 07:39:40;;;;;;;10.48;6.00;;;7.20;93.80;;;;;;5024706;28;20330;-71
2021/12/26 07:42:08;;;;;;;13.00;6.60;;;7.20;94.00;;;;;;5031252;28;20214;-71
2021/12/26 07:44:37;;;;;;;10.00;6.57;;;7.20;94.10;;;;;;5029886;28;20192;-71
2021/12/26 07:47:06;;;;;;;9.75;6.70;;;7.20;94.20;;;;;;5013467;28;20598;-72
2021/12/26 07:49:35;;;;;;;14.85;9.75;;;7.10;94.00;;;;;;5020316;28;20195;-72
2021/12/26 07:52:09;;;;;;;12.95;7.97;;;7.20;94.20;;;;;;5018614;28;20314;-71
2021/12/26 07:54:37;;;;;;;9.73;6.65;;;7.20;94.40;;;;;;5013377;28;20192;-72
2021/12/26 07:57:06;;;;;;;10.05;7.93;;;7.20;94.40;;;;;;5015890;28;20629;-71
2021/12/26 07:59:33;;;;;;;10.40;7.60;;;7.20;94.30;;;;;;5013364;28;20188;-73
2021/12/26 08:02:02;;;;;;;9.23;7.07;;;7.30;94.20;;;;;;5017585;28;20240;-74
2021/12/26 08:04:29;;;;;;;9.23;7.30;;;7.30;94.30;;;;;;5027195;28;20203;-72
2021/12/26 08:06:58;;;;;;;11.32;5.80;;;7.20;94.20;;;;;;5031641;28;20200;-71
2021/12/26 08:09:28;;;;;;;7.45;5.15;;;7.20;94.20;;;;;;5015946;28;20292;-71
2021/12/26 08:11:55;;;;;;;9.60;6.13;;;7.20;94.10;;;;;;5027232;28;20212;-72
2021/12/26 08:14:22;;;;;;;8.63;5.60;;;7.20;94.10;;;;;;5012545;28;20188;-71
2021/12/26 08:16:50;;;;;;;10.73;6.32;;;7.20;94.20;;;;;;5022004;28;20220;-72
2021/12/26 08:19:18;;;;;;;8.35;5.85;;;7.20;94.40;;;;;;5021981;28;20200;-72
2021/12/26 08:21:50;;;;;;;9.32;5.05;;;7.20;94.50;;;;;;5027908;28;20188;-72
2021/12/26 08:24:18;;;;;;;11.10;6.20;;;7.20;94.50;;;;;;5030410;28;20196;-72
2021/12/26 08:26:49;;;;;;;8.70;5.90;;;7.20;94.60;;;;;;5019438;28;20270;-73
2021/12/26 08:29:16;;;;;;;8.73;5.75;;;7.30;94.60;;;;;;5026761;28;20195;-71
2021/12/26 08:31:44;;;;;;;7.13;5.60;;;7.30;94.60;;;;;;5028741;28;20266;-72
2021/12/26 08:34:12;;;;;;;9.45;6.32;;;7.40;94.50;;;;;;5030271;28;20206;-72
2021/12/26 08:36:40;;;;;;;10.48;6.15;;;7.40;94.50;;;;;;5024601;28;20193;-72
2021/12/26 08:39:07;;;;;;;9.20;5.80;;;7.40;94.50;;;;;;5013015;28;20601;-72
2021/12/26 08:41:38;;;;;;;11.30;7.05;;;7.40;94.60;;;;;;5023647;28;20223;-71
2021/12/26 08:44:06;;;;;;;10.40;6.60;;;7.40;94.50;;;;;;5018717;28;20220;-73
2021/12/26 08:46:33;;;;;;;9.68;6.47;;;7.40;94.50;;;;;;5022845;28;20187;-72
2021/12/26 08:49:00;;;;;;;9.32;6.30;;;7.50;94.50;;;;;;5030140;28;20203;-72
2021/12/26 08:51:27;;;;;;;8.90;6.07;;;7.50;94.60;;;;;;5030206;28;20227;-72
2021/12/26 08:53:56;;;;;;;9.02;5.97;;;7.50;94.40;;;;;;5017240;28;20271;-71
2021/12/26 08:56:23;;;;;;;10.98;7.00;;;7.50;94.30;;;;;;5020008;28;20246;-72
2021/12/26 08:58:50;;;;;;;11.27;6.55;;;7.50;94.30;;;;;;5012390;28;20188;-72
2021/12/26 09:01:22;;;;;;;8.48;6.07;;;7.50;94.30;;;;;;5013775;28;20270;-72
2021/12/26 09:03:49;;;;;;;9.18;6.10;;;7.50;94.10;;;;;;5026412;28;20654;-72
2021/12/26 09:06:17;;;;;;;10.90;7.18;;;7.50;94.20;;;;;;5024564;28;20269;-73
2021/12/26 09:08:44;;;;;;;7.47;6.03;;;7.60;94.30;;;;;;5012116;28;20195;-71
2021/12/26 09:11:13;;;;;;;9.18;5.60;;;7.70;94.40;;;;;;5020390;28;20234;-72
2021/12/26 09:13:40;;;;;;;8.95;5.78;;;7.70;94.30;;;;;;5029236;28;20203;-73
2021/12/26 09:16:08;;;;;;;8.43;5.50;;;7.70;94.30;;;;;;5028123;28;20202;-72
2021/12/26 09:18:35;;;;;;;9.00;5.18;;;7.80;94.40;;;;;;5022319;28;20611;-72
2021/12/26 09:21:02;;;;;;;6.47;4.50;;;7.80;94.20;;;;;;5011944;28;20192;-71
2021/12/26 09:23:29;;;;;;;6.80;5.13;;;7.90;94.10;;;;;;5014983;28;20188;-71
2021/12/26 09:25:56;;;;;;;7.75;5.13;;;7.90;93.50;;;;;;5016172;28;20207;-72
2021/12/26 09:28:28;;;;;;;6.38;3.88;;;7.90;93.40;;;;;;5030903;28;20282;-72
2021/12/26 09:30:55;;;;;;;6.05;3.67;;;7.90;93.60;;;;;;5033405;28;20278;-72
2021/12/26 09:33:22;;;;;;;6.43;4.13;;;7.90;93.50;;;;;;5036811;28;20263;-72
2021/12/26 09:35:51;;;;;;;5.95;4.43;;;7.90;93.20;;;;;;5016051;28;20223;-72
2021/12/26 09:38:18;;;;;;;5.32;3.78;;;7.90;93.20;;;;;;5017878;28;21570;-76
2021/12/26 09:40:46;;;;;;;5.30;3.65;;;7.90;93.20;;;;;;5015961;28;20326;-72
2021/12/26 09:43:13;;;;;;;5.22;3.47;;;7.90;93.00;;;;;;5019881;28;20192;-72
2021/12/26 09:45:42;;;;;;;6.30;4.30;;;7.80;92.90;;;;;;5020220;28;20219;-73
2021/12/26 09:48:09;;;;;;;5.93;5.05;;;7.80;92.90;;;;;;5015911;28;20196;-72
2021/12/26 09:50:36;;;;;;;6.57;4.53;;;7.80;93.00;;;;;;5030271;28;20235;-72
2021/12/26 09:53:04;;;;;;;9.70;4.90;;;7.80;93.30;;;;;;5029235;28;20227;-73
2021/12/26 09:55:31;;;;;;;7.43;5.30;;;7.80;93.40;;;;;;5032591;28;20241;-72
2021/12/26 09:57:59;;;;;;;8.65;6.65;;;7.80;93.20;;;;;;5033152;28;20662;-71
2021/12/26 10:00:29;;;;;;;9.45;6.93;;;7.80;93.20;;;;;;5022448;28;20196;-73
2021/12/26 10:03:12;;;;;;;9.07;6.70;;;7.90;93.50;;;;;;5016420;28;20270;-74
2021/12/26 10:05:57;;;;;;;7.57;6.80;;;8.00;93.80;;;;;;5025151;28;20200;-72
2021/12/26 10:08:26;;;;;;;7.70;4.85;;;8.10;94.00;;;;;;5029812;28;20257;-75
2021/12/26 10:11:12;;;;;;;8.20;6.32;;;8.20;93.70;;;;;;5031481;28;20219;-72
2021/12/26 10:13:51;;;;;;;7.93;5.50;;;8.30;93.80;;;;;;5027245;28;20183;-73
2021/12/26 10:16:20;;;;;;;11.32;4.78;;;8.50;94.10;;;;;;5032123;28;20655;-73
2021/12/26 10:18:49;;;;;;;7.78;5.47;;;8.60;94.00;;;;;;5015405;28;20539;-73
2021/12/26 10:21:29;;;;;;;6.22;5.47;;;8.60;93.70;;;;;;5023327;28;20546;-75
2021/12/26 10:23:58;;;;;;;7.47;5.95;;;8.60;93.30;;;;;;5029663;28;20202;-73
2021/12/26 10:26:27;;;;;;;7.45;5.30;;;8.70;92.90;;;;;;5033204;28;20549;-71
2021/12/26 10:29:13;;;;;;;9.77;7.88;;;8.60;92.70;;;;;;5016100;28;20587;-72
2021/12/26 10:31:50;;;;;;;9.63;7.05;;;8.50;92.40;;;;;;5022644;28;20292;-78
2021/12/26 10:34:25;;;;;;;10.40;7.75;;;8.50;92.70;;;;;;5029366;28;20195;-72
2021/12/26 10:36:54;;;;;;;9.02;7.15;;;8.50;92.80;;;;;;5030617;28;20202;-72
2021/12/26 10:39:28;;;;;;;9.55;6.70;;;8.50;92.80;;;;;;5033852;28;20191;-73
2021/12/26 10:41:57;;;;;;;10.00;8.05;;;8.50;93.20;;;;;;5031339;28;20294;-73
2021/12/26 10:44:36;;;;;;;13.18;8.23;;;8.50;93.20;;;;;;5031766;28;20580;-73
2021/12/26 10:47:07;;;;;;;8.68;6.25;;;8.40;93.20;;;;;;5015347;28;20295;-73
2021/12/26 10:49:57;;;;;;;7.75;6.10;;;8.40;93.10;;;;;;5026763;28;20304;-73
2021/12/26 10:52:27;;;;;;;6.85;4.85;;;8.40;93.20;;;;;;5009903;28;20228;-72
2021/12/26 10:54:58;;;;;;;8.43;5.90;;;8.50;93.30;;;;;;5034216;28;20217;-72
2021/12/26 10:57:29;;;;;;;6.50;5.28;;;8.50;93.40;;;;;;5025160;28;20198;-74
2021/12/26 11:00:08;;;;;;;9.35;5.90;;;8.60;93.70;;;;;;5023176;28;20200;-74
2021/12/26 11:02:37;;;;;;;8.05;6.60;;;8.70;94.00;;;;;;5025919;28;20761;-72
2021/12/26 11:05:12;;;;;;;7.78;5.65;;;8.80;94.00;;;;;;5015986;28;20639;-72
2021/12/26 11:07:42;;;;;;;7.78;6.55;;;8.90;93.90;;;;;;5024071;28;20265;-74
2021/12/26 11:10:13;;;;;;;8.38;5.80;;;8.90;93.70;;;;;;5030466;28;20617;-72
2021/12/26 11:12:44;;;;;;;8.38;6.13;;;8.90;93.40;;;;;;5022181;28;20220;-72
2021/12/26 11:15:13;;;;;;;11.38;5.00;;;9.00;93.10;;;;;;5031608;28;20183;-75
2021/12/26 11:17:46;;;;;;;6.18;4.20;;;9.00;93.20;;;;;;5014390;28;20242;-80
2021/12/26 11:20:24;;;;;;;4.93;4.25;;;9.00;93.30;;;;;;5016757;28;20661;-78
2021/12/26 11:22:55;;;;;;;6.25;5.00;;;9.10;93.50;;;;;;5015622;28;20203;-79
2021/12/26 11:25:22;;;;;;;6.45;4.82;;;9.20;93.10;;;;;;5028375;28;20275;-77
2021/12/26 11:27:52;;;;;;;7.13;5.05;;;9.30;93.30;;;;;;5028236;28;20224;-79
2021/12/26 11:30:21;;;;;;;7.70;5.43;;;9.40;93.50;;;;;;5028514;28;20624;-78
2021/12/26 11:32:49;;;;;;;7.47;4.97;;;9.50;93.40;;;;;;5014678;28;20216;-79
2021/12/26 11:35:16;;;;;;;7.55;5.97;;;9.40;92.40;;;;;;5020005;28;20605;-78
2021/12/26 11:37:45;;;;;;;6.95;5.55;;;9.40;92.30;;;;;;5017266;28;20195;-79
2021/12/26 11:40:22;;;;;;;7.80;5.78;;;9.40;92.30;;;;;;5016782;28;20203;-78
2021/12/26 11:43:21;;;;;;;8.93;5.60;;;9.50;92.40;;;;;;5028314;28;20270;-79
2021/12/26 11:45:55;;;;;;;7.20;5.57;;;9.50;92.20;;;;;;5015955;28;20200;-79
2021/12/26 11:48:49;;;;;;;4.32;3.88;;;9.50;92.00;;;;;;5031012;28;20269;-78
2021/12/26 11:51:51;;;;;;;6.60;4.65;;;9.40;92.20;;;;;;5024248;28;20224;-78
2021/12/26 11:54:55;;;;;;;5.50;4.40;;;9.40;92.40;;;;;;5020150;28;20191;-79
2021/12/26 11:58:21;;;;;;;4.78;4.05;;;9.50;92.60;;;;;;5022848;28;20742;-78
2021/12/26 12:00:51;;;;;;;4.80;3.42;;;9.40;92.30;;;;;;4952921;28;20213;-79
2021/12/26 12:03:20;;;;;;;5.05;3.45;;;9.40;92.40;;;;;;5013998;28;20189;-79
2021/12/26 12:05:48;;;;;;;5.90;3.70;;;9.40;92.40;;;;;;5014903;28;20184;-78
2021/12/26 12:08:17;;;;;;;3.38;2.95;;;9.40;92.50;;;;;;5019327;28;20183;-79
2021/12/26 12:10:56;;;;;;;5.22;3.70;;;9.40;92.40;;;;;;5034995;28;20560;-78
2021/12/26 12:13:42;;;;;;;4.00;2.92;;;9.40;92.50;;;;;;5022637;28;20195;-78
2021/12/26 12:16:11;;;;;;;4.00;2.72;;;9.30;92.50;;;;;;5022170;28;20285;-80
2021/12/26 12:18:40;;;;;;;4.68;3.38;;;9.20;92.80;;;;;;5027322;28;20708;-79
2021/12/26 12:21:21;;;;;;;4.32;3.10;;;9.20;93.00;;;;;;5030635;28;20191;-79
2021/12/26 12:24:00;;;;;;;6.90;3.65;;;9.20;92.90;;;;;;5022682;28;20257;-78
2021/12/26 12:26:56;;;;;;;4.95;3.42;;;9.20;93.30;;;;;;5030039;28;20237;-78
2021/12/26 12:29:48;;;;;;;4.18;3.20;;;9.20;93.30;;;;;;4984925;28;20187;-78
2021/12/26 12:32:18;;;;;;;4.38;3.28;;;9.20;93.30;;;;;;5017470;28;20223;-78
2021/12/26 12:34:47;;;;;;;5.10;3.05;;;9.30;93.50;;;;;;5026665;28;20616;-79
2021/12/26 12:37:31;;;;;;;6.10;3.15;;;9.30;93.30;;;;;;5028581;28;20286;-79
2021/12/26 12:40:19;;;;;;;4.10;2.75;;;9.20;93.40;;;;;;5028663;28;21733;-78
2021/12/26 12:43:05;;;;;;;3.78;2.67;;;9.20;93.50;;;;;;5023368;28;20279;-79
2021/12/26 12:46:06;;;;;;;4.75;3.10;;;9.20;93.60;;;;;;5029273;28;20243;-78
2021/12/26 12:48:38;;;;;;;4.28;2.80;;;9.20;93.50;;;;;;5021659;28;20521;-79
2021/12/26 12:51:49;;;;;;;4.15;3.15;;;9.20;93.50;;;;;;5024401;28;20224;-78
2021/12/26 12:54:30;;;;;;;2.75;2.10;;;9.20;93.80;;;;;;5028954;28;20661;-79
2021/12/26 12:56:59;;;;;;;3.80;2.75;;;9.20;93.80;;;;;;5014400;28;20314;-78
2021/12/26 12:59:42;;;;;;;5.95;3.35;;;9.20;93.90;;;;;;5029131;28;20183;-79
2021/12/26 13:02:26;;;;;;;4.88;3.95;;;9.30;94.70;;;;;;5035605;28;20273;-78
2021/12/26 13:04:53;;;;;;;3.97;2.97;;;9.50;94.90;;;;;;5029918;28;20191;-79
2021/12/26 13:07:25;;;;;;;4.50;3.38;;;9.60;94.00;;;;;;5021201;28;20665;-77
2021/12/26 13:09:55;;;;;;;3.45;2.45;;;9.70;93.20;;;;;;5024050;28;20599;-79
2021/12/26 13:12:23;;;;;;;3.65;2.55;;;9.70;93.10;;;;;;5029997;28;20227;-78